LICA/SUF METAR and TAF weather

Enter ICAO airport designator
Station Type Date Time Source
LICA METAR 2019/05/26 00:50 UTC NOAA

LICA 260050Z 07013KT 9999 FEW020 BKN080 18/13 Q1013


Station Type Date Time Source
LICA Decoded METAR 2019/05/26 00:50 UTC NOAA

Lamezia Terme, Italy (LICA) 38-54N 016-15E
May 25, 2019 - 08:50 PM EDT / 2019.05.26 0050 UTC
Wind: from the ENE (070 degrees) at 15 MPH (13 KT):0
Visibility: greater than 7 mile(s):0
Sky conditions: mostly cloudy
Temperature: 64 F (18 C)
Dew Point: 55 F (13 C)
Relative Humidity: 72%
Pressure (altimeter): 29.91 in. Hg (1013 hPa)
ob: LICA 260050Z 07013KT 9999 FEW020 BKN080 18/13 Q1013
cycle: 1

Station Type Date Time Source
LICA TAF 2019/05/25 18:21 UTC NOAA

TAF LICA 251700Z 2518/2618 08014KT 9999 SCT050
BECMG 2606/0608 08018G28KT
TEMPO 2609/2612 RA
BECMG 2616/2618 08012KT

Example: see airport list